Miami, Florida
Traffic Map
Current Weather Conditions
Miami, Florida
Scattered Clouds
Scattered Clouds
82°
Feels Like: 89°
Wind Chill: 82° Ceiling: Unl
Heat Index: 89° Visibility: 10mi
Dew Point: 75° Wind: 8mph
Humidity: 79% Direction: 130° (SE)
Pressure: 30.04in Gusts: 0mph
Raw Report DataKMIA 250953Z 13007KT 10SM FEW020 FEW032 SCT250 28/24 A3004 RMK AO2 SLP173 T02780239 $
Traffic Incident Summary
Active as of:
Severity:
Category:
InformationThere was an issue retrieving the traffic information for this location. Please try a different location or try again shortly.
Advertisements
Track Severe Weather on mobile